DIRECCIÓN GENERAL DE AERONÁUTICA CIVIL
DIRECCIÓN METEOROLÓGICA DE CHILE
INFORMACIÓN METAR Y TAF

FIR PUERTO MONTT

Estación: SCQP
METAR SCQP 221200Z 00000KT 9999 OVC025 09/09 Q1018=

TAF SCQP 221047Z 2212/2312 24003KT 9999 SCT027 TX20/2219Z TN07/2306Z TEMPO 2213/2219 FEW040 SCT150 BECMG 2216/2218 27006KT BECMG 2220/2222 27010KT SCT040 BECMG 2301/2303 35005KT BKN030 BKN060=

Estación: SCVD
METAR SCVD 221200Z 15003KT 100V180 9999 BKN031 11/10 Q1018=

TAF SCVD 221047Z 2212/224 30004KT 9999 BKN025 TN09/2212Z TX17/2219Z BECMG 2214/2216 33006KT SCT030 BECMG 2221/2223 34010KT BKN030=

Estación: SCJO
METAR SCJO 221200Z VRB02KT 9999 BKN035 12/08 Q1018=

TAF SCJO 221046Z 2212/2224 35005KT 9999 BKN040 TN09/2212Z TX16/2219Z BECMG 2214/2216 36010KT BECMG 2218/2220 BKN023 BKN040 TEMPO 2221/2224 5000 -SHRA BKN020 OVC030=

Estación: SCTE
METAR SCTE 221200Z 36005KT 9999 BKN040 11/08 Q1018 NOSIG=

TAF SCTE 221046Z 2212/2312 35005KT 9999 SCT023 OVC035 TX14/2218Z TN09 /2310Z BECMG 2213/2215 36010KT BKN020 OVC033 TEMPO 2216/2222 6000 - SHRA BKN018 OVC030 BECMG 2222/2224 36012KT 5000 -RA BKN015 OVC025=

Estación: SCPQ
METAR SCPQ 221200Z 35010KT 4000 -RA BR BKN005 OVC011 10/09 Q1016=

TAF SCPQ 221046Z 2212/2224 35008KT 2000 -DZBR OVC005 TN09/2212Z TX13/ 2218Z BECMG 2212/2214 36012KT 9999 SCT012 BKN025 OVC050 BECMG 2214/ 2216 5000 -RA BKN018 OVC035 TEMPO 2217/2222 4000 -DZ BKN012 OVC030=

Estación: SCON
METAR SCON 211900Z 08005KT 9999 OVC025 12/09 Q1020=

TAF SCON 221046Z 2212/2224 35008KT 9999 BKN023 OVC040 TN09/2212Z TX13 /2218Z BECMG 2213/2215 6000 -RA BKN018 OVC030 TEMPO 2215/2220 4000 - RA BKN014 OVC025=

Estación: SCTN
NIL=

NIL=

Estación: SCFT
METAR SCFT 221200Z AUTO 24007KT 200V270 CAVOK 12/03 Q1014=

NIL=

Estación: SCAP
METAR SCAP 221200Z AUTO 22006KT 190V270 //// // NSC 12/05 Q1020=

NIL=

Estación: SCMK
METAR SCMK 221200Z 02015KT 8000 -RA OVC013 10/09 Q1013=

TAF SCMK 221046Z 2212/2224 35015KT 6000 -RA BKN015 OVC023 TN09/2212Z TX13/2218Z TEMPO 2213/2218 35015G25KT 4000 -RA BKN012 OVC018=

Estación: SCAS
METAR SCAS 211900Z 25011KT 9999 FEW030 OVC036 13/07 Q1017=

NIL=

Estación: SCCY
METAR SCCY 221200Z 02005KT 9999 BKN030 12/05 Q1010=

TAF SCCY 221045Z 2212/2224 30008KT 9999 BKN030 OVC050 TN09/2212Z TX14 /2219Z TEMPO 2215/2220 30010G23KT=

Estación: SCBA
METAR SCBA 221200Z 31014KT 280V340 9999 SCT025 OVC030 08/05 Q1009=

TAF SCBA 221045Z 2212/2312 30017KT 9999 SCT040 BKN070 BKN200 TX14/ 2219Z TN06/2309Z BECMG 2213/2215 30023G33KT TEMPO 2216/2220 30025G40KT BECMG 2300/2302 29015KT=

Estación: SCCC
METAR SCCC 211900Z 29021G31KT 9999 FEW040 BKN090 16/00 Q1010=

NIL=

Estación: SCHR
METAR SCHR 211900Z 30006KT 9999 SCT040 BKN100 17/03 Q1008=

TAF SCHR 211028Z 2112/2200 25003KT CAVOK TN08/2112Z TX18/2118Z TEMPO 2112/2116 VRB03KT 9999 FEW005 SCT035=


Volver